sensor_id;sensor_type;location;lat;lon;timestamp;P1;durP1;ratioP1;P2;durP2;ratioP2
13785;SDS011;47474;48.824;9.384;2023-04-29T00:00:21;2.87;;;2.50;;
13785;SDS011;47474;48.824;9.384;2023-04-29T00:03:18;3.27;;;3.00;;
13785;SDS011;47474;48.824;9.384;2023-04-29T00:05:51;2.90;;;2.70;;
13785;SDS011;47474;48.824;9.384;2023-04-29T00:08:32;3.90;;;2.90;;
13785;SDS011;47474;48.824;9.384;2023-04-29T00:14:14;2.97;;;2.67;;
13785;SDS011;47474;48.824;9.384;2023-04-29T00:16:54;2.93;;;2.63;;
13785;SDS011;47474;48.824;9.384;2023-04-29T00:19:47;3.70;;;2.83;;
13785;SDS011;47474;48.824;9.384;2023-04-29T00:22:26;2.70;;;2.50;;
13785;SDS011;47474;48.824;9.384;2023-04-29T00:25:13;3.83;;;2.40;;
13785;SDS011;47474;48.824;9.384;2023-04-29T00:28:14;2.73;;;2.53;;
13785;SDS011;47474;48.824;9.384;2023-04-29T00:30:51;3.67;;;2.73;;
13785;SDS011;47474;48.824;9.384;2023-04-29T00:33:29;3.40;;;2.73;;
13785;SDS011;47474;48.824;9.384;2023-04-29T00:36:22;2.90;;;2.70;;
13785;SDS011;47474;48.824;9.384;2023-04-29T00:39:05;3.53;;;2.53;;
13785;SDS011;47474;48.824;9.384;2023-04-29T00:41:45;3.00;;;2.70;;
13785;SDS011;47474;48.824;9.384;2023-04-29T00:44:22;2.57;;;2.37;;
13785;SDS011;47474;48.824;9.384;2023-04-29T00:47:09;4.33;;;3.17;;
13785;SDS011;47474;48.824;9.384;2023-04-29T00:50:02;3.37;;;2.80;;
13785;SDS011;47474;48.824;9.384;2023-04-29T00:52:41;2.67;;;2.47;;
13785;SDS011;47474;48.824;9.384;2023-04-29T00:55:18;2.63;;;2.40;;
13785;SDS011;47474;48.824;9.384;2023-04-29T00:58:12;2.80;;;2.60;;
13785;SDS011;47474;48.824;9.384;2023-04-29T01:00:59;3.70;;;3.27;;
13785;SDS011;47474;48.824;9.384;2023-04-29T01:03:46;3.20;;;2.90;;
13785;SDS011;47474;48.824;9.384;2023-04-29T01:06:41;2.80;;;2.60;;
13785;SDS011;47474;48.824;9.384;2023-04-29T01:09:49;5.10;;;3.20;;
13785;SDS011;47474;48.824;9.384;2023-04-29T01:12:43;3.20;;;2.90;;
13785;SDS011;47474;48.824;9.384;2023-04-29T01:15:31;4.33;;;3.23;;
13785;SDS011;47474;48.824;9.384;2023-04-29T01:18:21;4.93;;;3.00;;
13785;SDS011;47474;48.824;9.384;2023-04-29T01:21:15;3.30;;;3.00;;
13785;SDS011;47474;48.824;9.384;2023-04-29T01:23:53;3.17;;;2.87;;
13785;SDS011;47474;48.824;9.384;2023-04-29T01:26:29;4.97;;;2.87;;
13785;SDS011;47474;48.824;9.384;2023-04-29T01:29:21;3.27;;;2.97;;
13785;SDS011;47474;48.824;9.384;2023-04-29T01:32:15;3.40;;;3.10;;
13785;SDS011;47474;48.824;9.384;2023-04-29T01:34:54;4.13;;;3.20;;
13785;SDS011;47474;48.824;9.384;2023-04-29T01:37:44;3.07;;;2.87;;
13785;SDS011;47474;48.824;9.384;2023-04-29T01:43:45;4.47;;;3.00;;
13785;SDS011;47474;48.824;9.384;2023-04-29T01:46:35;3.63;;;2.60;;
13785;SDS011;47474;48.824;9.384;2023-04-29T01:49:29;2.80;;;2.60;;
13785;SDS011;47474;48.824;9.384;2023-04-29T01:52:05;3.00;;;2.80;;
13785;SDS011;47474;48.824;9.384;2023-04-29T01:54:51;3.40;;;3.10;;
13785;SDS011;47474;48.824;9.384;2023-04-29T01:57:35;7.43;;;2.50;;
13785;SDS011;47474;48.824;9.384;2023-04-29T02:00:13;2.93;;;2.67;;
13785;SDS011;47474;48.824;9.384;2023-04-29T02:05:41;3.00;;;2.70;;
13785;SDS011;47474;48.824;9.384;2023-04-29T02:08:26;2.77;;;2.57;;
13785;SDS011;47474;48.824;9.384;2023-04-29T02:13:59;3.97;;;2.63;;
13785;SDS011;47474;48.824;9.384;2023-04-29T02:16:58;2.40;;;2.27;;
13785;SDS011;47474;48.824;9.384;2023-04-29T02:19:38;2.83;;;2.63;;
13785;SDS011;47474;48.824;9.384;2023-04-29T02:22:53;3.07;;;2.67;;
13785;SDS011;47474;48.824;9.384;2023-04-29T02:25:52;2.87;;;2.13;;
13785;SDS011;47474;48.824;9.384;2023-04-29T02:28:47;2.67;;;2.47;;
13785;SDS011;47474;48.824;9.384;2023-04-29T02:31:33;2.70;;;2.50;;
13785;SDS011;47474;48.824;9.384;2023-04-29T02:34:04;5.83;;;3.13;;
13785;SDS011;47474;48.824;9.384;2023-04-29T02:36:51;3.27;;;2.97;;
13785;SDS011;47474;48.824;9.384;2023-04-29T02:39:31;2.97;;;2.70;;
13785;SDS011;47474;48.824;9.384;2023-04-29T02:42:17;3.20;;;2.70;;
13785;SDS011;47474;48.824;9.384;2023-04-29T02:44:52;2.40;;;2.20;;
13785;SDS011;47474;48.824;9.384;2023-04-29T02:47:29;2.67;;;2.47;;
13785;SDS011;47474;48.824;9.384;2023-04-29T02:50:29;2.70;;;2.50;;
13785;SDS011;47474;48.824;9.384;2023-04-29T02:53:11;2.40;;;2.20;;
13785;SDS011;47474;48.824;9.384;2023-04-29T02:56:00;3.70;;;2.90;;
13785;SDS011;47474;48.824;9.384;2023-04-29T02:58:36;3.10;;;2.90;;
13785;SDS011;47474;48.824;9.384;2023-04-29T03:01:11;2.93;;;2.67;;
13785;SDS011;47474;48.824;9.384;2023-04-29T03:06:45;3.00;;;2.67;;
13785;SDS011;47474;48.824;9.384;2023-04-29T03:09:23;3.50;;;3.20;;
13785;SDS011;47474;48.824;9.384;2023-04-29T03:12:00;5.60;;;3.73;;
13785;SDS011;47474;48.824;9.384;2023-04-29T03:14:47;3.57;;;2.80;;
13785;SDS011;47474;48.824;9.384;2023-04-29T03:17:41;3.10;;;2.50;;
13785;SDS011;47474;48.824;9.384;2023-04-29T03:20:22;2.63;;;2.43;;
13785;SDS011;47474;48.824;9.384;2023-04-29T03:22:56;3.03;;;2.73;;
13785;SDS011;47474;48.824;9.384;2023-04-29T03:25:31;2.90;;;2.63;;
13785;SDS011;47474;48.824;9.384;2023-04-29T03:28:13;2.90;;;2.63;;
13785;SDS011;47474;48.824;9.384;2023-04-29T03:30:40;2.77;;;2.57;;
13785;SDS011;47474;48.824;9.384;2023-04-29T03:33:08;2.43;;;2.23;;
13785;SDS011;47474;48.824;9.384;2023-04-29T03:35:36;2.33;;;2.13;;
13785;SDS011;47474;48.824;9.384;2023-04-29T03:38:03;3.20;;;2.43;;
13785;SDS011;47474;48.824;9.384;2023-04-29T03:40:30;2.60;;;2.40;;
13785;SDS011;47474;48.824;9.384;2023-04-29T03:43:00;3.53;;;2.17;;
13785;SDS011;47474;48.824;9.384;2023-04-29T03:45:27;2.20;;;2.00;;
13785;SDS011;47474;48.824;9.384;2023-04-29T03:47:57;2.30;;;2.10;;
13785;SDS011;47474;48.824;9.384;2023-04-29T03:50:25;2.33;;;2.13;;
13785;SDS011;47474;48.824;9.384;2023-04-29T03:52:53;2.33;;;2.10;;
13785;SDS011;47474;48.824;9.384;2023-04-29T03:55:24;2.23;;;2.00;;
13785;SDS011;47474;48.824;9.384;2023-04-29T03:57:57;3.23;;;2.30;;
13785;SDS011;47474;48.824;9.384;2023-04-29T04:00:26;2.00;;;1.90;;
13785;SDS011;47474;48.824;9.384;2023-04-29T04:02:55;2.07;;;1.97;;
13785;SDS011;47474;48.824;9.384;2023-04-29T04:05:39;1.90;;;1.70;;
13785;SDS011;47474;48.824;9.384;2023-04-29T04:08:15;2.13;;;1.93;;
13785;SDS011;47474;48.824;9.384;2023-04-29T04:10:42;2.50;;;2.30;;
13785;SDS011;47474;48.824;9.384;2023-04-29T04:13:11;3.10;;;2.87;;
13785;SDS011;47474;48.824;9.384;2023-04-29T04:15:49;2.90;;;2.67;;
13785;SDS011;47474;48.824;9.384;2023-04-29T04:18:35;3.80;;;3.43;;
13785;SDS011;47474;48.824;9.384;2023-04-29T04:21:20;3.60;;;3.30;;
13785;SDS011;47474;48.824;9.384;2023-04-29T04:29:02;3.70;;;3.20;;
13785;SDS011;47474;48.824;9.384;2023-04-29T04:31:37;3.50;;;2.90;;
13785;SDS011;47474;48.824;9.384;2023-04-29T04:34:07;2.60;;;2.33;;
13785;SDS011;47474;48.824;9.384;2023-04-29T04:36:40;2.40;;;2.20;;
13785;SDS011;47474;48.824;9.384;2023-04-29T04:39:07;2.40;;;2.20;;
13785;SDS011;47474;48.824;9.384;2023-04-29T04:41:34;1.87;;;1.73;;
13785;SDS011;47474;48.824;9.384;2023-04-29T04:44:04;2.60;;;2.40;;
13785;SDS011;47474;48.824;9.384;2023-04-29T04:46:31;2.70;;;2.43;;
13785;SDS011;47474;48.824;9.384;2023-04-29T04:49:01;4.13;;;3.00;;
13785;SDS011;47474;48.824;9.384;2023-04-29T04:51:42;2.80;;;2.50;;
13785;SDS011;47474;48.824;9.384;2023-04-29T04:54:17;3.57;;;2.90;;
13785;SDS011;47474;48.824;9.384;2023-04-29T04:56:44;9.93;;;6.17;;
13785;SDS011;47474;48.824;9.384;2023-04-29T04:59:13;7.37;;;4.83;;
13785;SDS011;47474;48.824;9.384;2023-04-29T05:01:50;4.70;;;3.67;;
13785;SDS011;47474;48.824;9.384;2023-04-29T05:04:19;4.00;;;3.60;;
13785;SDS011;47474;48.824;9.384;2023-04-29T05:06:48;3.10;;;2.80;;
13785;SDS011;47474;48.824;9.384;2023-04-29T05:09:19;2.83;;;2.63;;
13785;SDS011;47474;48.824;9.384;2023-04-29T05:11:57;3.00;;;2.80;;
13785;SDS011;47474;48.824;9.384;2023-04-29T05:14:30;2.70;;;2.50;;
13785;SDS011;47474;48.824;9.384;2023-04-29T05:17:01;3.13;;;2.83;;
13785;SDS011;47474;48.824;9.384;2023-04-29T05:19:38;4.47;;;3.70;;
13785;SDS011;47474;48.824;9.384;2023-04-29T05:22:27;5.27;;;3.73;;
13785;SDS011;47474;48.824;9.384;2023-04-29T05:25:16;5.40;;;4.50;;
13785;SDS011;47474;48.824;9.384;2023-04-29T05:27:48;4.83;;;4.10;;
13785;SDS011;47474;48.824;9.384;2023-04-29T05:30:38;7.23;;;5.50;;
13785;SDS011;47474;48.824;9.384;2023-04-29T05:33:15;8.03;;;5.63;;
13785;SDS011;47474;48.824;9.384;2023-04-29T05:35:42;10.80;;;6.10;;
13785;SDS011;47474;48.824;9.384;2023-04-29T05:38:09;9.10;;;5.57;;
13785;SDS011;47474;48.824;9.384;2023-04-29T05:40:36;10.27;;;6.97;;
13785;SDS011;47474;48.824;9.384;2023-04-29T05:43:04;9.57;;;7.83;;
13785;SDS011;47474;48.824;9.384;2023-04-29T05:45:31;9.53;;;7.23;;
13785;SDS011;47474;48.824;9.384;2023-04-29T05:47:59;11.60;;;7.57;;
13785;SDS011;47474;48.824;9.384;2023-04-29T05:50:26;10.90;;;7.93;;
13785;SDS011;47474;48.824;9.384;2023-04-29T05:52:54;12.27;;;9.27;;
13785;SDS011;47474;48.824;9.384;2023-04-29T05:55:25;13.53;;;8.50;;
13785;SDS011;47474;48.824;9.384;2023-04-29T05:57:51;9.33;;;8.30;;
13785;SDS011;47474;48.824;9.384;2023-04-29T06:00:25;11.70;;;9.37;;
13785;SDS011;47474;48.824;9.384;2023-04-29T06:03:06;9.07;;;7.20;;
13785;SDS011;47474;48.824;9.384;2023-04-29T06:05:33;8.10;;;6.37;;
13785;SDS011;47474;48.824;9.384;2023-04-29T06:08:00;6.87;;;5.80;;
13785;SDS011;47474;48.824;9.384;2023-04-29T06:10:28;7.50;;;5.53;;
13785;SDS011;47474;48.824;9.384;2023-04-29T06:12:56;8.40;;;5.23;;
13785;SDS011;47474;48.824;9.384;2023-04-29T06:15:22;7.03;;;5.10;;
13785;SDS011;47474;48.824;9.384;2023-04-29T06:17:49;4.97;;;4.47;;
13785;SDS011;47474;48.824;9.384;2023-04-29T06:20:18;5.63;;;4.90;;
13785;SDS011;47474;48.824;9.384;2023-04-29T06:22:44;4.90;;;4.40;;
13785;SDS011;47474;48.824;9.384;2023-04-29T06:25:11;4.10;;;3.67;;
13785;SDS011;47474;48.824;9.384;2023-04-29T06:27:52;4.07;;;3.67;;
13785;SDS011;47474;48.824;9.384;2023-04-29T06:30:18;4.83;;;4.03;;
13785;SDS011;47474;48.824;9.384;2023-04-29T06:32:45;4.83;;;4.43;;
13785;SDS011;47474;48.824;9.384;2023-04-29T06:35:11;5.37;;;4.80;;
13785;SDS011;47474;48.824;9.384;2023-04-29T06:37:39;5.07;;;4.60;;
13785;SDS011;47474;48.824;9.384;2023-04-29T06:40:08;5.80;;;5.20;;
13785;SDS011;47474;48.824;9.384;2023-04-29T06:42:36;5.47;;;4.50;;
13785;SDS011;47474;48.824;9.384;2023-04-29T06:45:03;7.43;;;5.00;;
13785;SDS011;47474;48.824;9.384;2023-04-29T06:47:30;6.63;;;6.03;;
13785;SDS011;47474;48.824;9.384;2023-04-29T06:49:57;5.77;;;5.23;;
13785;SDS011;47474;48.824;9.384;2023-04-29T06:52:23;7.77;;;5.53;;
13785;SDS011;47474;48.824;9.384;2023-04-29T06:54:53;6.80;;;6.10;;
13785;SDS011;47474;48.824;9.384;2023-04-29T06:57:20;6.70;;;5.70;;
13785;SDS011;47474;48.824;9.384;2023-04-29T06:59:46;6.67;;;5.70;;
13785;SDS011;47474;48.824;9.384;2023-04-29T07:02:16;6.50;;;5.90;;
13785;SDS011;47474;48.824;9.384;2023-04-29T07:04:45;6.80;;;5.70;;
13785;SDS011;47474;48.824;9.384;2023-04-29T07:07:13;5.60;;;5.10;;
13785;SDS011;47474;48.824;9.384;2023-04-29T07:09:40;5.63;;;5.13;;
13785;SDS011;47474;48.824;9.384;2023-04-29T07:12:08;5.57;;;5.07;;
13785;SDS011;47474;48.824;9.384;2023-04-29T07:14:34;6.03;;;4.43;;
13785;SDS011;47474;48.824;9.384;2023-04-29T07:17:02;5.13;;;4.63;;
13785;SDS011;47474;48.824;9.384;2023-04-29T07:19:29;5.87;;;4.67;;
13785;SDS011;47474;48.824;9.384;2023-04-29T07:21:58;4.23;;;3.83;;
13785;SDS011;47474;48.824;9.384;2023-04-29T07:24:25;5.10;;;3.70;;
13785;SDS011;47474;48.824;9.384;2023-04-29T07:27:02;4.47;;;3.70;;
13785;SDS011;47474;48.824;9.384;2023-04-29T07:29:43;6.17;;;4.07;;
13785;SDS011;47474;48.824;9.384;2023-04-29T07:32:18;5.40;;;4.27;;
13785;SDS011;47474;48.824;9.384;2023-04-29T07:34:46;5.57;;;4.40;;
13785;SDS011;47474;48.824;9.384;2023-04-29T07:37:17;4.00;;;3.70;;
13785;SDS011;47474;48.824;9.384;2023-04-29T07:39:49;4.87;;;4.47;;
13785;SDS011;47474;48.824;9.384;2023-04-29T07:42:18;4.53;;;4.13;;
13785;SDS011;47474;48.824;9.384;2023-04-29T07:44:48;5.10;;;4.70;;
13785;SDS011;47474;48.824;9.384;2023-04-29T07:47:15;5.07;;;4.57;;
13785;SDS011;47474;48.824;9.384;2023-04-29T07:49:44;4.80;;;4.40;;
13785;SDS011;47474;48.824;9.384;2023-04-29T07:52:11;4.30;;;3.90;;
13785;SDS011;47474;48.824;9.384;2023-04-29T07:54:38;4.37;;;4.03;;
13785;SDS011;47474;48.824;9.384;2023-04-29T07:57:07;4.07;;;3.73;;
13785;SDS011;47474;48.824;9.384;2023-04-29T07:59:35;4.00;;;3.70;;
13785;SDS011;47474;48.824;9.384;2023-04-29T08:02:12;5.27;;;4.30;;
13785;SDS011;47474;48.824;9.384;2023-04-29T08:04:43;3.83;;;3.53;;
13785;SDS011;47474;48.824;9.384;2023-04-29T08:07:35;4.00;;;3.57;;
13785;SDS011;47474;48.824;9.384;2023-04-29T08:10:21;6.17;;;3.60;;
13785;SDS011;47474;48.824;9.384;2023-04-29T08:13:17;4.27;;;3.60;;
13785;SDS011;47474;48.824;9.384;2023-04-29T08:15:57;3.63;;;3.17;;
13785;SDS011;47474;48.824;9.384;2023-04-29T08:18:34;3.80;;;3.50;;
13785;SDS011;47474;48.824;9.384;2023-04-29T08:21:01;3.30;;;3.00;;
13785;SDS011;47474;48.824;9.384;2023-04-29T08:23:38;4.10;;;3.30;;
13785;SDS011;47474;48.824;9.384;2023-04-29T08:26:10;3.47;;;3.17;;
13785;SDS011;47474;48.824;9.384;2023-04-29T08:28:42;5.57;;;3.03;;
13785;SDS011;47474;48.824;9.384;2023-04-29T08:31:15;4.40;;;4.00;;
13785;SDS011;47474;48.824;9.384;2023-04-29T08:33:57;3.63;;;2.93;;
13785;SDS011;47474;48.824;9.384;2023-04-29T08:36:27;3.43;;;3.03;;
13785;SDS011;47474;48.824;9.384;2023-04-29T08:38:55;3.53;;;3.20;;
13785;SDS011;47474;48.824;9.384;2023-04-29T08:41:22;3.53;;;3.20;;
13785;SDS011;47474;48.824;9.384;2023-04-29T08:43:49;5.07;;;2.90;;
13785;SDS011;47474;48.824;9.384;2023-04-29T08:46:18;3.07;;;2.77;;
13785;SDS011;47474;48.824;9.384;2023-04-29T08:48:47;3.87;;;3.30;;
13785;SDS011;47474;48.824;9.384;2023-04-29T08:51:19;3.67;;;3.37;;
13785;SDS011;47474;48.824;9.384;2023-04-29T08:53:50;3.60;;;2.87;;
13785;SDS011;47474;48.824;9.384;2023-04-29T08:56:30;3.90;;;3.20;;
13785;SDS011;47474;48.824;9.384;2023-04-29T08:59:04;2.90;;;2.70;;
13785;SDS011;47474;48.824;9.384;2023-04-29T09:01:44;3.60;;;3.10;;
13785;SDS011;47474;48.824;9.384;2023-04-29T09:04:20;4.47;;;3.00;;
13785;SDS011;47474;48.824;9.384;2023-04-29T09:06:59;4.27;;;3.23;;
13785;SDS011;47474;48.824;9.384;2023-04-29T09:09:40;3.20;;;2.90;;
13785;SDS011;47474;48.824;9.384;2023-04-29T09:12:19;3.20;;;2.83;;
13785;SDS011;47474;48.824;9.384;2023-04-29T09:14:51;3.00;;;2.70;;
13785;SDS011;47474;48.824;9.384;2023-04-29T09:17:22;3.00;;;2.70;;
13785;SDS011;47474;48.824;9.384;2023-04-29T09:20:25;2.67;;;2.47;;
13785;SDS011;47474;48.824;9.384;2023-04-29T09:23:03;2.67;;;2.47;;
13785;SDS011;47474;48.824;9.384;2023-04-29T09:25:39;3.20;;;2.27;;
13785;SDS011;47474;48.824;9.384;2023-04-29T09:28:13;2.97;;;2.50;;
13785;SDS011;47474;48.824;9.384;2023-04-29T09:30:44;3.00;;;2.80;;
13785;SDS011;47474;48.824;9.384;2023-04-29T09:33:15;4.03;;;2.70;;
13785;SDS011;47474;48.824;9.384;2023-04-29T09:36:07;3.17;;;2.58;;
13785;SDS011;47474;48.824;9.384;2023-04-29T09:38:56;3.20;;;2.90;;
13785;SDS011;47474;48.824;9.384;2023-04-29T09:41:55;2.67;;;2.47;;
13785;SDS011;47474;48.824;9.384;2023-04-29T09:44:41;3.55;;;2.95;;
13785;SDS011;47474;48.824;9.384;2023-04-29T09:47:35;4.38;;;2.65;;
13785;SDS011;47474;48.824;9.384;2023-04-29T09:50:26;3.58;;;2.97;;
13785;SDS011;47474;48.824;9.384;2023-04-29T09:53:11;2.80;;;2.33;;
13785;SDS011;47474;48.824;9.384;2023-04-29T09:56:01;3.10;;;2.72;;
13785;SDS011;47474;48.824;9.384;2023-04-29T09:58:36;2.78;;;2.45;;
13785;SDS011;47474;48.824;9.384;2023-04-29T10:01:07;2.60;;;2.40;;
13785;SDS011;47474;48.824;9.384;2023-04-29T10:03:48;3.42;;;2.67;;
13785;SDS011;47474;48.824;9.384;2023-04-29T10:06:38;2.63;;;2.42;;
13785;SDS011;47474;48.824;9.384;2023-04-29T10:09:38;4.50;;;3.08;;
13785;SDS011;47474;48.824;9.384;2023-04-29T10:12:30;3.28;;;2.90;;
13785;SDS011;47474;48.824;9.384;2023-04-29T10:15:00;2.80;;;2.60;;
13785;SDS011;47474;48.824;9.384;2023-04-29T10:17:32;2.75;;;2.55;;
13785;SDS011;47474;48.824;9.384;2023-04-29T10:20:02;3.30;;;2.70;;
13785;SDS011;47474;48.824;9.384;2023-04-29T10:22:32;2.83;;;2.58;;
13785;SDS011;47474;48.824;9.384;2023-04-29T10:25:00;2.58;;;2.38;;
13785;SDS011;47474;48.824;9.384;2023-04-29T10:27:26;2.20;;;2.00;;
13785;SDS011;47474;48.824;9.384;2023-04-29T10:29:56;2.72;;;2.50;;
13785;SDS011;47474;48.824;9.384;2023-04-29T10:32:23;2.55;;;2.35;;
13785;SDS011;47474;48.824;9.384;2023-04-29T10:34:50;2.40;;;2.20;;
13785;SDS011;47474;48.824;9.384;2023-04-29T10:37:17;4.13;;;2.70;;
13785;SDS011;47474;48.824;9.384;2023-04-29T10:39:45;4.43;;;2.80;;
13785;SDS011;47474;48.824;9.384;2023-04-29T10:42:19;4.40;;;2.80;;
13785;SDS011;47474;48.824;9.384;2023-04-29T10:47:57;3.22;;;2.72;;
13785;SDS011;47474;48.824;9.384;2023-04-29T10:50:34;3.53;;;3.15;;
13785;SDS011;47474;48.824;9.384;2023-04-29T10:53:06;3.42;;;3.13;;
13785;SDS011;47474;48.824;9.384;2023-04-29T10:55:34;3.50;;;2.92;;
13785;SDS011;47474;48.824;9.384;2023-04-29T10:58:01;3.63;;;2.83;;
13785;SDS011;47474;48.824;9.384;2023-04-29T11:00:30;2.92;;;2.20;;
13785;SDS011;47474;48.824;9.384;2023-04-29T11:02:59;5.25;;;3.22;;
13785;SDS011;47474;48.824;9.384;2023-04-29T11:05:30;3.22;;;2.92;;
13785;SDS011;47474;48.824;9.384;2023-04-29T11:08:09;3.33;;;3.00;;
13785;SDS011;47474;48.824;9.384;2023-04-29T11:10:36;4.15;;;2.47;;
13785;SDS011;47474;48.824;9.384;2023-04-29T11:13:22;2.90;;;2.67;;
13785;SDS011;47474;48.824;9.384;2023-04-29T11:15:51;3.00;;;2.65;;
13785;SDS011;47474;48.824;9.384;2023-04-29T11:18:18;2.80;;;2.60;;
13785;SDS011;47474;48.824;9.384;2023-04-29T11:23:39;2.70;;;2.50;;
13785;SDS011;47474;48.824;9.384;2023-04-29T11:26:06;3.30;;;2.55;;
13785;SDS011;47474;48.824;9.384;2023-04-29T11:28:33;3.45;;;3.15;;
13785;SDS011;47474;48.824;9.384;2023-04-29T11:31:01;4.57;;;2.53;;
13785;SDS011;47474;48.824;9.384;2023-04-29T11:33:30;2.80;;;2.60;;
13785;SDS011;47474;48.824;9.384;2023-04-29T11:35:57;3.63;;;3.33;;
13785;SDS011;47474;48.824;9.384;2023-04-29T11:38:24;3.85;;;3.40;;
13785;SDS011;47474;48.824;9.384;2023-04-29T11:40:50;3.75;;;3.45;;
13785;SDS011;47474;48.824;9.384;2023-04-29T11:43:17;4.25;;;3.30;;
13785;SDS011;47474;48.824;9.384;2023-04-29T11:45:44;4.65;;;4.25;;
13785;SDS011;47474;48.824;9.384;2023-04-29T11:48:17;3.95;;;3.55;;
13785;SDS011;47474;48.824;9.384;2023-04-29T11:50:44;5.32;;;4.82;;
13785;SDS011;47474;48.824;9.384;2023-04-29T11:53:11;4.32;;;3.92;;
13785;SDS011;47474;48.824;9.384;2023-04-29T11:55:37;4.30;;;3.80;;
13785;SDS011;47474;48.824;9.384;2023-04-29T11:58:04;5.28;;;4.55;;
13785;SDS011;47474;48.824;9.384;2023-04-29T12:00:31;5.22;;;4.15;;
13785;SDS011;47474;48.824;9.384;2023-04-29T12:02:57;5.13;;;4.30;;
13785;SDS011;47474;48.824;9.384;2023-04-29T12:05:25;4.40;;;3.80;;
13785;SDS011;47474;48.824;9.384;2023-04-29T12:07:53;4.47;;;4.07;;
13785;SDS011;47474;48.824;9.384;2023-04-29T12:10:20;4.95;;;4.45;;
13785;SDS011;47474;48.824;9.384;2023-04-29T12:12:47;6.57;;;4.00;;
13785;SDS011;47474;48.824;9.384;2023-04-29T12:15:13;5.07;;;4.60;;
13785;SDS011;47474;48.824;9.384;2023-04-29T12:17:40;5.30;;;3.88;;
13785;SDS011;47474;48.824;9.384;2023-04-29T12:20:08;5.40;;;4.75;;
13785;SDS011;47474;48.824;9.384;2023-04-29T12:22:37;4.07;;;3.67;;
13785;SDS011;47474;48.824;9.384;2023-04-29T12:25:04;5.50;;;5.00;;
13785;SDS011;47474;48.824;9.384;2023-04-29T12:27:31;5.40;;;4.90;;
13785;SDS011;47474;48.824;9.384;2023-04-29T12:29:57;5.10;;;4.57;;
13785;SDS011;47474;48.824;9.384;2023-04-29T12:32:24;5.20;;;4.78;;
13785;SDS011;47474;48.824;9.384;2023-04-29T12:34:51;5.88;;;4.85;;
13785;SDS011;47474;48.824;9.384;2023-04-29T12:37:17;5.55;;;4.28;;
13785;SDS011;47474;48.824;9.384;2023-04-29T12:39:45;6.05;;;5.45;;
13785;SDS011;47474;48.824;9.384;2023-04-29T12:42:15;5.50;;;4.25;;
13785;SDS011;47474;48.824;9.384;2023-04-29T12:44:44;8.73;;;4.68;;
13785;SDS011;47474;48.824;9.384;2023-04-29T12:47:12;5.03;;;4.15;;
13785;SDS011;47474;48.824;9.384;2023-04-29T12:49:40;5.75;;;5.22;;
13785;SDS011;47474;48.824;9.384;2023-04-29T12:52:07;4.90;;;4.40;;
13785;SDS011;47474;48.824;9.384;2023-04-29T12:54:34;4.72;;;4.22;;
13785;SDS011;47474;48.824;9.384;2023-04-29T12:57:03;4.97;;;4.30;;
13785;SDS011;47474;48.824;9.384;2023-04-29T12:59:29;5.68;;;5.18;;
13785;SDS011;47474;48.824;9.384;2023-04-29T13:01:56;5.35;;;4.82;;
13785;SDS011;47474;48.824;9.384;2023-04-29T13:04:22;5.25;;;4.75;;
13785;SDS011;47474;48.824;9.384;2023-04-29T13:06:49;6.30;;;5.65;;
13785;SDS011;47474;48.824;9.384;2023-04-29T13:09:18;5.85;;;5.00;;
13785;SDS011;47474;48.824;9.384;2023-04-29T13:11:44;5.75;;;5.13;;
13785;SDS011;47474;48.824;9.384;2023-04-29T13:14:13;5.22;;;4.72;;
13785;SDS011;47474;48.824;9.384;2023-04-29T13:16:40;5.97;;;4.45;;
13785;SDS011;47474;48.824;9.384;2023-04-29T13:19:06;5.70;;;5.20;;
13785;SDS011;47474;48.824;9.384;2023-04-29T13:21:33;5.47;;;4.97;;
13785;SDS011;47474;48.824;9.384;2023-04-29T13:23:59;9.15;;;5.90;;
13785;SDS011;47474;48.824;9.384;2023-04-29T13:26:26;5.40;;;4.90;;
13785;SDS011;47474;48.824;9.384;2023-04-29T13:28:53;5.75;;;5.18;;
13785;SDS011;47474;48.824;9.384;2023-04-29T13:31:21;6.38;;;5.78;;
13785;SDS011;47474;48.824;9.384;2023-04-29T13:33:47;5.95;;;5.35;;
13785;SDS011;47474;48.824;9.384;2023-04-29T13:36:14;5.93;;;5.43;;
13785;SDS011;47474;48.824;9.384;2023-04-29T13:38:40;7.53;;;6.47;;
13785;SDS011;47474;48.824;9.384;2023-04-29T13:41:07;6.38;;;5.30;;
13785;SDS011;47474;48.824;9.384;2023-04-29T13:43:33;6.30;;;5.50;;
13785;SDS011;47474;48.824;9.384;2023-04-29T13:46:00;5.75;;;4.50;;
13785;SDS011;47474;48.824;9.384;2023-04-29T13:48:28;9.52;;;5.85;;
13785;SDS011;47474;48.824;9.384;2023-04-29T13:50:54;8.35;;;6.60;;
13785;SDS011;47474;48.824;9.384;2023-04-29T13:53:21;6.50;;;5.47;;
13785;SDS011;47474;48.824;9.384;2023-04-29T13:55:47;7.00;;;6.30;;
13785;SDS011;47474;48.824;9.384;2023-04-29T13:58:14;6.88;;;6.22;;
13785;SDS011;47474;48.824;9.384;2023-04-29T14:00:40;7.32;;;6.45;;
13785;SDS011;47474;48.824;9.384;2023-04-29T14:03:07;6.38;;;5.75;;
13785;SDS011;47474;48.824;9.384;2023-04-29T14:05:35;8.32;;;5.75;;
13785;SDS011;47474;48.824;9.384;2023-04-29T14:08:03;7.93;;;6.57;;
13785;SDS011;47474;48.824;9.384;2023-04-29T14:10:30;6.88;;;5.75;;
13785;SDS011;47474;48.824;9.384;2023-04-29T14:12:56;6.75;;;5.25;;
13785;SDS011;47474;48.824;9.384;2023-04-29T14:15:23;9.80;;;6.40;;
13785;SDS011;47474;48.824;9.384;2023-04-29T14:17:49;8.88;;;6.35;;
13785;SDS011;47474;48.824;9.384;2023-04-29T14:20:17;7.13;;;5.70;;
13785;SDS011;47474;48.824;9.384;2023-04-29T14:22:45;7.68;;;6.35;;
13785;SDS011;47474;48.824;9.384;2023-04-29T14:25:11;7.45;;;5.78;;
13785;SDS011;47474;48.824;9.384;2023-04-29T14:27:38;6.75;;;5.80;;
13785;SDS011;47474;48.824;9.384;2023-04-29T14:30:05;6.65;;;6.05;;
13785;SDS011;47474;48.824;9.384;2023-04-29T14:32:32;8.50;;;6.05;;
13785;SDS011;47474;48.824;9.384;2023-04-29T14:34:59;8.13;;;6.05;;
13785;SDS011;47474;48.824;9.384;2023-04-29T14:37:25;6.78;;;5.70;;
13785;SDS011;47474;48.824;9.384;2023-04-29T14:39:53;6.60;;;5.82;;
13785;SDS011;47474;48.824;9.384;2023-04-29T14:42:20;6.47;;;5.82;;
13785;SDS011;47474;48.824;9.384;2023-04-29T14:44:46;6.45;;;5.85;;
13785;SDS011;47474;48.824;9.384;2023-04-29T14:47:12;7.65;;;6.38;;
13785;SDS011;47474;48.824;9.384;2023-04-29T14:49:39;8.50;;;7.10;;
13785;SDS011;47474;48.824;9.384;2023-04-29T14:52:06;7.20;;;6.28;;
13785;SDS011;47474;48.824;9.384;2023-04-29T14:54:33;6.43;;;5.47;;
13785;SDS011;47474;48.824;9.384;2023-04-29T14:57:01;5.68;;;4.85;;
13785;SDS011;47474;48.824;9.384;2023-04-29T14:59:28;5.28;;;4.45;;
13785;SDS011;47474;48.824;9.384;2023-04-29T15:01:54;5.65;;;5.05;;
13785;SDS011;47474;48.824;9.384;2023-04-29T15:04:21;10.93;;;5.93;;
13785;SDS011;47474;48.824;9.384;2023-04-29T15:06:48;6.55;;;5.15;;
13785;SDS011;47474;48.824;9.384;2023-04-29T15:09:14;8.68;;;6.22;;
13785;SDS011;47474;48.824;9.384;2023-04-29T15:11:41;7.07;;;5.65;;
13785;SDS011;47474;48.824;9.384;2023-04-29T15:14:09;6.45;;;5.15;;
13785;SDS011;47474;48.824;9.384;2023-04-29T15:16:36;7.20;;;5.97;;
13785;SDS011;47474;48.824;9.384;2023-04-29T15:19:02;7.10;;;5.97;;
13785;SDS011;47474;48.824;9.384;2023-04-29T15:21:29;6.97;;;5.68;;
13785;SDS011;47474;48.824;9.384;2023-04-29T15:23:56;8.40;;;5.65;;
13785;SDS011;47474;48.824;9.384;2023-04-29T15:26:22;7.82;;;6.35;;
13785;SDS011;47474;48.824;9.384;2023-04-29T15:28:49;9.20;;;6.47;;
13785;SDS011;47474;48.824;9.384;2023-04-29T15:31:18;9.25;;;5.88;;
13785;SDS011;47474;48.824;9.384;2023-04-29T15:33:44;8.73;;;7.03;;
13785;SDS011;47474;48.824;9.384;2023-04-29T15:36:11;8.73;;;6.70;;
13785;SDS011;47474;48.824;9.384;2023-04-29T15:38:37;9.15;;;7.15;;
13785;SDS011;47474;48.824;9.384;2023-04-29T15:41:04;7.90;;;6.15;;
13785;SDS011;47474;48.824;9.384;2023-04-29T15:43:30;8.43;;;6.03;;
13785;SDS011;47474;48.824;9.384;2023-04-29T15:45:57;7.90;;;6.38;;
13785;SDS011;47474;48.824;9.384;2023-04-29T15:48:25;9.65;;;6.57;;
13785;SDS011;47474;48.824;9.384;2023-04-29T15:50:52;11.05;;;7.22;;